Time;durP1;ratioP1;P1;durP2;ratioP2;P2;SDS_P1;SDS_P2;PMS_P1;PMS_P2;Temp;Humidity;BMP_temperature;BMP_pressure;BME280_temperature;BME280_humidity;BME280_pressure;Samples;Min_cycle;Max_cycle;Signal;HPM_P1;HPM_P2
2021/08/31 00:00:52;;;;;;;8.88;6.47;;;16.60;89.60;;;;;;2091381;28;20025;-93
2021/08/31 00:01:53;;;;;;;9.85;7.10;;;16.60;89.60;;;;;;2089178;28;20033;-92
2021/08/31 00:02:54;;;;;;;9.77;7.30;;;16.60;89.70;;;;;;2089974;28;20035;-94
2021/08/31 00:03:54;;;;;;;10.50;6.80;;;16.60;89.70;;;;;;2081992;28;20040;-93
2021/08/31 00:04:55;;;;;;;8.90;6.78;;;16.60;89.70;;;;;;2077435;28;20506;-93
2021/08/31 00:05:56;;;;;;;10.10;7.35;;;16.60;89.70;;;;;;2074460;28;20037;-93
2021/08/31 00:06:57;;;;;;;10.75;7.50;;;16.60;89.80;;;;;;2073963;28;20081;-93
2021/08/31 00:07:58;;;;;;;9.35;7.32;;;16.60;89.80;;;;;;2081240;28;20044;-92
2021/08/31 00:08:59;;;;;;;10.85;7.55;;;16.60;89.80;;;;;;2082902;28;20068;-92
2021/08/31 00:10:00;;;;;;;10.77;7.07;;;16.60;89.80;;;;;;2068795;28;20523;-92
2021/08/31 00:11:02;;;;;;;12.13;7.60;;;16.60;89.80;;;;;;2081149;28;20037;-93
2021/08/31 00:12:03;;;;;;;9.23;7.20;;;16.60;89.90;;;;;;2098074;28;20074;-92
2021/08/31 00:13:04;;;;;;;10.50;7.88;;;16.60;89.90;;;;;;2105590;28;20083;-93
2021/08/31 00:14:05;;;;;;;9.68;7.50;;;16.50;89.90;;;;;;2094574;28;20025;-92
2021/08/31 00:15:07;;;;;;;9.00;6.88;;;16.50;89.90;;;;;;2085860;28;20029;-93
2021/08/31 00:16:08;;;;;;;9.25;7.07;;;16.50;89.90;;;;;;2081706;28;20037;-92
2021/08/31 00:17:09;;;;;;;8.68;6.70;;;16.50;89.90;;;;;;2080858;28;20034;-92
2021/08/31 00:18:10;;;;;;;10.20;7.50;;;16.50;89.90;;;;;;2081869;28;20030;-93
2021/08/31 00:19:11;;;;;;;12.82;7.90;;;16.50;89.90;;;;;;2087224;28;20048;-92
2021/08/31 00:20:12;;;;;;;11.00;7.70;;;16.50;90.00;;;;;;2072911;28;20553;-94
2021/08/31 00:21:13;;;;;;;10.35;7.20;;;16.50;90.00;;;;;;2089247;28;20017;-93
2021/08/31 00:22:14;;;;;;;10.18;7.63;;;16.50;90.00;;;;;;2098462;28;20577;-93
2021/08/31 00:23:14;;;;;;;9.15;6.88;;;16.50;90.00;;;;;;2081338;28;20051;-93
2021/08/31 00:24:15;;;;;;;8.77;7.30;;;16.50;90.00;;;;;;2065313;28;20120;-93
2021/08/31 00:25:17;;;;;;;10.13;7.63;;;16.50;90.00;;;;;;2089340;28;20023;-94
2021/08/31 00:26:18;;;;;;;10.45;7.32;;;16.50;90.00;;;;;;2074020;28;20046;-93
2021/08/31 00:27:18;;;;;;;9.43;7.22;;;16.40;90.00;;;;;;2073641;28;20030;-93
2021/08/31 00:28:20;;;;;;;9.20;7.38;;;16.40;90.00;;;;;;2073567;28;20450;-93
2021/08/31 00:29:21;;;;;;;9.43;7.28;;;16.50;90.00;;;;;;2084946;28;20106;-92
2021/08/31 00:30:21;;;;;;;9.27;7.10;;;16.50;90.00;;;;;;2066318;28;20235;-93
2021/08/31 00:31:22;;;;;;;9.10;7.57;;;16.40;90.00;;;;;;2074110;28;20050;-94
2021/08/31 00:32:23;;;;;;;9.13;6.88;;;16.50;90.10;;;;;;2080847;28;20026;-93
2021/08/31 00:33:23;;;;;;;8.73;6.60;;;16.40;90.00;;;;;;2074263;28;20068;-93
2021/08/31 00:34:25;;;;;;;8.52;6.53;;;16.40;90.10;;;;;;2074215;28;20093;-92
2021/08/31 00:35:26;;;;;;;10.20;7.57;;;16.40;90.40;;;;;;2089833;28;20028;-92
2021/08/31 00:36:26;;;;;;;9.18;7.25;;;16.40;90.10;;;;;;2088971;28;20035;-93
2021/08/31 00:37:27;;;;;;;9.23;7.30;;;16.40;90.10;;;;;;2073696;28;20038;-93
2021/08/31 00:38:28;;;;;;;9.38;7.07;;;16.40;90.10;;;;;;2082853;28;20022;-93
2021/08/31 00:39:28;;;;;;;8.45;7.07;;;16.40;90.10;;;;;;2088864;28;20121;-94
2021/08/31 00:40:29;;;;;;;10.48;7.38;;;16.40;90.10;;;;;;2089630;28;20021;-93
2021/08/31 00:41:30;;;;;;;9.63;6.97;;;16.40;90.40;;;;;;2092385;28;20036;-94
2021/08/31 00:42:30;;;;;;;8.32;6.22;;;16.40;90.20;;;;;;2080720;28;20037;-92
2021/08/31 00:43:43;;;;;;;11.63;8.48;;;16.40;90.20;;;;;;2075286;28;20027;-93
2021/08/31 00:44:44;;;;;;;10.70;7.65;;;16.40;90.20;;;;;;2091925;28;20099;-94
2021/08/31 00:45:45;;;;;;;9.18;7.28;;;16.30;90.20;;;;;;2089396;28;20025;-94
2021/08/31 00:46:57;;;;;;;9.50;7.10;;;16.30;90.20;;;;;;2095620;28;20017;-93
2021/08/31 00:48:02;;;;;;;8.70;6.65;;;16.30;90.30;;;;;;2098101;28;20028;-93
2021/08/31 00:49:03;;;;;;;8.77;6.60;;;16.30;90.30;;;;;;2089134;28;20482;-93
2021/08/31 00:50:05;;;;;;;9.73;6.80;;;16.30;90.30;;;;;;2081202;28;20022;-93
2021/08/31 00:51:07;;;;;;;9.65;6.60;;;16.30;90.30;;;;;;2073079;28;20486;-93
2021/08/31 00:52:08;;;;;;;9.45;6.93;;;16.30;90.30;;;;;;2074402;28;20049;-93
2021/08/31 00:53:10;;;;;;;10.13;7.22;;;16.30;90.30;;;;;;2081677;28;20029;-93
2021/08/31 00:54:11;;;;;;;8.88;7.13;;;16.30;90.30;;;;;;2076561;28;20041;-93
2021/08/31 00:55:12;;;;;;;8.98;7.00;;;16.30;90.30;;;;;;2097764;28;20029;-93
2021/08/31 00:56:12;;;;;;;10.07;7.47;;;16.30;90.40;;;;;;2089924;28;20029;-93
2021/08/31 00:57:14;;;;;;;9.70;6.93;;;16.20;90.40;;;;;;2080976;28;20096;-92
2021/08/31 00:58:15;;;;;;;9.68;7.07;;;16.20;90.40;;;;;;2089802;28;20028;-94
2021/08/31 00:59:18;;;;;;;8.23;6.57;;;16.30;90.50;;;;;;2090229;28;20021;-93
2021/08/31 01:00:19;;;;;;;8.98;6.82;;;16.20;90.40;;;;;;2091807;28;20036;-93
2021/08/31 01:01:20;;;;;;;10.02;6.78;;;16.20;90.40;;;;;;2079270;28;20072;-94
2021/08/31 01:02:20;;;;;;;8.05;6.45;;;16.20;90.40;;;;;;2090297;28;20041;-88
2021/08/31 01:03:22;;;;;;;8.55;6.75;;;16.20;90.40;;;;;;2104513;28;20032;-92
2021/08/31 01:04:24;;;;;;;9.73;6.78;;;16.20;90.40;;;;;;2089549;28;20053;-92
2021/08/31 01:05:31;;;;;;;10.30;7.10;;;16.20;90.50;;;;;;2089612;28;20006;-90
2021/08/31 01:06:31;;;;;;;9.93;7.57;;;16.20;90.50;;;;;;2102797;28;20013;-92
2021/08/31 01:07:33;;;;;;;11.32;7.50;;;16.20;90.50;;;;;;2101628;28;20020;-90
2021/08/31 01:08:34;;;;;;;8.85;7.05;;;16.20;90.50;;;;;;2102087;28;20033;-92
2021/08/31 01:09:36;;;;;;;10.82;7.40;;;16.20;90.50;;;;;;2101627;28;20034;-89
2021/08/31 01:10:37;;;;;;;10.85;7.53;;;16.20;90.50;;;;;;2088831;28;20009;-90
2021/08/31 01:11:38;;;;;;;8.68;7.10;;;16.20;90.50;;;;;;2075437;28;20010;-91
2021/08/31 01:12:39;;;;;;;8.88;6.70;;;16.20;90.50;;;;;;2085294;28;20018;-88
2021/08/31 01:13:42;;;;;;;9.50;6.85;;;16.20;90.50;;;;;;2090607;28;20009;-91
2021/08/31 01:14:43;;;;;;;9.20;6.85;;;16.20;90.50;;;;;;2102195;28;20088;-89
2021/08/31 01:15:44;;;;;;;9.85;7.10;;;16.20;90.50;;;;;;2101142;28;20005;-91
2021/08/31 01:16:46;;;;;;;9.15;7.05;;;16.20;90.50;;;;;;2093214;28;20033;-90
2021/08/31 01:17:48;;;;;;;10.57;7.68;;;16.30;90.60;;;;;;2092531;28;20097;-92
2021/08/31 01:18:48;;;;;;;9.90;7.57;;;16.20;90.50;;;;;;2091720;28;20021;-93
2021/08/31 01:19:49;;;;;;;10.05;7.22;;;16.20;90.50;;;;;;2096848;28;20036;-92
2021/08/31 01:20:56;;;;;;;10.55;7.68;;;16.20;90.50;;;;;;2084814;28;20029;-94
2021/08/31 01:22:04;;;;;;;9.48;7.07;;;16.20;90.60;;;;;;2092760;28;20024;-92
2021/08/31 01:23:05;;;;;;;10.38;6.75;;;16.20;90.60;;;;;;2101026;28;20026;-91
2021/08/31 01:24:06;;;;;;;10.18;6.93;;;16.20;90.60;;;;;;2091240;28;20041;-92
2021/08/31 01:25:08;;;;;;;10.73;7.10;;;16.20;90.60;;;;;;2085417;28;20431;-92
2021/08/31 01:26:09;;;;;;;10.70;6.85;;;16.20;90.60;;;;;;2078030;28;20511;-92
2021/08/31 01:27:10;;;;;;;8.40;6.45;;;16.20;90.60;;;;;;2075251;28;20058;-92
2021/08/31 01:28:31;;;;;;;10.77;7.93;;;16.20;90.60;;;;;;2091451;28;20037;-93
2021/08/31 01:29:32;;;;;;;9.60;7.07;;;16.20;90.60;;;;;;2101682;28;20047;-92
2021/08/31 01:30:33;;;;;;;8.82;6.82;;;16.20;90.60;;;;;;2091793;28;20061;-93
2021/08/31 01:31:34;;;;;;;10.43;7.60;;;16.20;90.70;;;;;;2097594;28;20029;-92
2021/08/31 01:32:35;;;;;;;9.18;7.38;;;16.20;90.70;;;;;;2104691;28;20004;-91
2021/08/31 01:33:36;;;;;;;9.63;7.05;;;16.10;90.70;;;;;;2105575;28;20021;-88
2021/08/31 01:34:36;;;;;;;10.18;7.10;;;16.20;90.70;;;;;;2092572;28;20010;-89
2021/08/31 01:35:37;;;;;;;9.20;6.97;;;16.20;90.70;;;;;;2092820;28;20009;-92
2021/08/31 01:36:38;;;;;;;10.38;6.63;;;16.10;90.70;;;;;;2088356;28;20129;-92
2021/08/31 01:37:38;;;;;;;9.02;6.85;;;16.10;90.70;;;;;;2089554;28;20053;-93
2021/08/31 01:38:39;;;;;;;9.02;6.72;;;16.10;90.70;;;;;;2082846;28;20030;-93
2021/08/31 01:39:40;;;;;;;8.80;6.55;;;16.10;90.70;;;;;;2080450;28;20053;-92
2021/08/31 01:40:41;;;;;;;9.60;6.70;;;16.10;90.70;;;;;;2086806;28;20167;-92
2021/08/31 01:41:42;;;;;;;8.63;6.80;;;16.10;90.80;;;;;;2083246;28;20103;-92
2021/08/31 01:42:42;;;;;;;8.75;6.82;;;16.10;90.80;;;;;;2090858;28;20029;-93
2021/08/31 01:43:44;;;;;;;9.35;6.28;;;16.10;90.80;;;;;;2074645;28;20030;-93
2021/08/31 01:44:44;;;;;;;9.57;6.18;;;16.10;90.80;;;;;;2072724;28;20033;-92
2021/08/31 01:45:46;;;;;;;10.02;7.00;;;16.10;90.80;;;;;;2074732;28;20057;-93
2021/08/31 01:46:47;;;;;;;11.15;7.00;;;16.10;90.80;;;;;;2082954;28;20026;-94
2021/08/31 01:47:48;;;;;;;9.77;6.93;;;16.00;90.80;;;;;;2082951;28;20018;-92
2021/08/31 01:48:48;;;;;;;8.80;6.35;;;16.00;90.80;;;;;;2083042;28;20116;-92
2021/08/31 01:49:49;;;;;;;8.98;6.70;;;16.00;90.80;;;;;;2082934;28;20021;-92
2021/08/31 01:50:50;;;;;;;8.30;6.57;;;16.00;90.80;;;;;;2089791;28;20033;-93
2021/08/31 01:51:50;;;;;;;8.98;6.25;;;16.00;90.80;;;;;;2088618;28;20030;-93
2021/08/31 01:52:51;;;;;;;9.23;6.65;;;16.00;90.90;;;;;;2079678;28;20485;-92
2021/08/31 01:53:52;;;;;;;9.02;6.80;;;16.00;90.90;;;;;;2091785;28;20048;-93
2021/08/31 01:54:53;;;;;;;8.98;7.28;;;16.00;90.90;;;;;;2075948;28;20061;-93
2021/08/31 01:55:53;;;;;;;9.10;7.40;;;16.00;90.90;;;;;;2086814;28;20056;-93
2021/08/31 01:56:54;;;;;;;8.93;6.70;;;16.00;90.90;;;;;;2089297;28;20035;-93
2021/08/31 01:57:54;;;;;;;9.05;6.32;;;16.00;90.90;;;;;;2075845;28;20041;-93
2021/08/31 01:58:55;;;;;;;8.80;6.78;;;15.90;90.90;;;;;;2079732;28;20026;-92
2021/08/31 01:59:56;;;;;;;8.43;6.40;;;16.00;90.90;;;;;;2102085;28;20047;-91
2021/08/31 02:00:57;;;;;;;10.88;7.47;;;16.00;90.90;;;;;;2079638;28;20025;-92
2021/08/31 02:01:57;;;;;;;9.35;6.63;;;16.00;90.90;;;;;;2093828;28;20056;-92
2021/08/31 02:02:59;;;;;;;8.98;7.03;;;15.90;90.90;;;;;;2090228;28;20009;-92
2021/08/31 02:04:00;;;;;;;8.88;6.82;;;16.00;90.90;;;;;;2098622;28;20027;-91
2021/08/31 02:05:00;;;;;;;8.93;6.75;;;16.00;90.90;;;;;;2102948;28;20028;-93
2021/08/31 02:06:01;;;;;;;8.63;6.65;;;15.90;90.90;;;;;;2095451;28;20046;-92
2021/08/31 02:07:02;;;;;;;10.38;7.03;;;15.90;90.90;;;;;;2090555;28;20218;-94
2021/08/31 02:08:03;;;;;;;8.73;6.63;;;15.90;90.90;;;;;;2083673;28;20091;-93
2021/08/31 02:09:03;;;;;;;9.07;6.82;;;15.90;91.00;;;;;;2091195;28;20032;-93
2021/08/31 02:10:05;;;;;;;9.75;7.13;;;15.90;91.20;;;;;;2087585;28;20032;-93
2021/08/31 02:11:06;;;;;;;10.05;7.03;;;15.90;91.00;;;;;;2090199;28;20103;-92
2021/08/31 02:12:07;;;;;;;10.02;6.60;;;15.90;91.00;;;;;;2090757;28;20025;-93
2021/08/31 02:13:08;;;;;;;8.82;6.80;;;15.90;91.00;;;;;;2082603;28;20454;-92
2021/08/31 02:14:09;;;;;;;9.10;6.53;;;15.90;91.10;;;;;;2080285;28;20060;-92
2021/08/31 02:15:10;;;;;;;9.77;6.38;;;15.90;91.10;;;;;;2098456;28;20074;-92
2021/08/31 02:16:11;;;;;;;9.35;6.45;;;15.90;91.10;;;;;;2087653;28;20106;-91
2021/08/31 02:17:12;;;;;;;9.80;6.68;;;15.80;91.10;;;;;;2082549;28;20121;-92
2021/08/31 02:18:12;;;;;;;10.40;7.18;;;15.80;91.10;;;;;;2081216;28;20048;-93
2021/08/31 02:19:13;;;;;;;10.23;6.80;;;15.90;91.10;;;;;;2074071;28;20165;-93
2021/08/31 02:20:14;;;;;;;10.85;8.23;;;15.80;91.00;;;;;;2079829;28;20040;-93
2021/08/31 02:21:15;;;;;;;10.15;7.32;;;15.80;91.10;;;;;;2082903;28;20032;-93
2021/08/31 02:22:16;;;;;;;10.98;7.88;;;15.80;91.10;;;;;;2082182;28;20021;-94
2021/08/31 02:23:16;;;;;;;10.52;7.30;;;15.80;91.10;;;;;;2082399;28;20029;-92
2021/08/31 02:24:17;;;;;;;10.70;7.50;;;15.80;91.10;;;;;;2080432;28;20112;-93
2021/08/31 02:25:18;;;;;;;9.50;6.80;;;15.80;91.10;;;;;;2082714;28;20052;-92
2021/08/31 02:26:19;;;;;;;9.73;6.90;;;15.90;91.10;;;;;;2088192;28;20029;-93
2021/08/31 02:27:19;;;;;;;11.05;6.70;;;15.90;91.10;;;;;;2074106;28;20372;-93
2021/08/31 02:28:20;;;;;;;9.88;6.75;;;15.90;91.10;;;;;;2088264;28;20656;-95
2021/08/31 02:29:21;;;;;;;9.70;7.03;;;15.90;91.10;;;;;;2099404;28;20032;-93
2021/08/31 02:30:21;;;;;;;11.27;6.68;;;15.90;91.10;;;;;;2084993;28;20021;-93
2021/08/31 02:31:22;;;;;;;8.80;6.80;;;15.80;91.10;;;;;;2078193;28;20095;-92
2021/08/31 02:32:23;;;;;;;9.68;6.55;;;15.80;91.10;;;;;;2090506;28;20032;-93
2021/08/31 02:33:24;;;;;;;9.48;6.30;;;15.80;91.10;;;;;;2093024;28;20083;-93
2021/08/31 02:34:24;;;;;;;8.95;6.40;;;15.80;91.10;;;;;;2098504;28;20428;-93
2021/08/31 02:35:25;;;;;;;9.07;6.07;;;15.80;91.10;;;;;;2105550;28;20031;-92
2021/08/31 02:36:26;;;;;;;8.45;6.35;;;15.90;91.10;;;;;;2082182;28;20045;-93
2021/08/31 02:37:27;;;;;;;8.02;5.53;;;15.80;91.10;;;;;;2082719;28;20052;-93
2021/08/31 02:38:28;;;;;;;8.57;6.05;;;15.90;91.10;;;;;;2073357;28;20026;-92
2021/08/31 02:39:28;;;;;;;8.52;5.78;;;15.90;91.10;;;;;;2073866;28;20025;-93
2021/08/31 02:40:29;;;;;;;9.35;6.32;;;15.90;91.10;;;;;;2074659;28;20026;-93
2021/08/31 02:41:30;;;;;;;8.98;5.85;;;15.90;91.10;;;;;;2083004;28;20025;-93
2021/08/31 02:42:31;;;;;;;8.88;6.20;;;15.80;91.10;;;;;;2090783;28;20032;-93
2021/08/31 02:43:32;;;;;;;9.65;6.78;;;15.80;91.10;;;;;;2090663;28;20111;-93
2021/08/31 02:44:32;;;;;;;8.80;6.32;;;15.80;91.10;;;;;;2081375;28;20526;-93
2021/08/31 02:45:33;;;;;;;7.75;5.70;;;15.80;91.20;;;;;;2096899;28;20058;-92
2021/08/31 02:46:34;;;;;;;9.23;6.28;;;15.80;91.20;;;;;;2090277;28;20035;-93
2021/08/31 02:47:35;;;;;;;9.07;5.60;;;15.80;91.20;;;;;;2082681;28;20072;-93
2021/08/31 02:48:35;;;;;;;8.23;5.90;;;15.80;91.20;;;;;;2082529;28;20034;-93
2021/08/31 02:49:36;;;;;;;9.27;6.45;;;15.80;91.20;;;;;;2065931;28;20505;-93
2021/08/31 02:50:37;;;;;;;9.98;6.10;;;15.80;91.20;;;;;;2080772;28;20479;-92
2021/08/31 02:51:37;;;;;;;10.48;6.65;;;15.80;91.20;;;;;;2090669;28;20090;-93
2021/08/31 02:52:38;;;;;;;10.85;7.07;;;15.80;91.20;;;;;;2097428;28;20028;-93
2021/08/31 02:53:39;;;;;;;9.40;6.57;;;15.80;91.20;;;;;;2082317;28;20087;-93
2021/08/31 02:54:40;;;;;;;9.32;6.18;;;15.80;91.20;;;;;;2083575;28;20025;-92
2021/08/31 02:55:41;;;;;;;9.65;6.65;;;15.80;91.20;;;;;;2091178;28;20036;-93
2021/08/31 02:56:41;;;;;;;8.27;5.70;;;15.80;91.20;;;;;;2074049;28;20030;-93
2021/08/31 02:57:42;;;;;;;9.18;6.07;;;15.80;91.20;;;;;;2082200;28;20045;-93
2021/08/31 02:58:43;;;;;;;7.85;5.45;;;15.80;91.20;;;;;;2089830;28;20036;-92
2021/08/31 02:59:43;;;;;;;10.88;6.43;;;15.80;91.20;;;;;;2082196;28;20033;-92
2021/08/31 03:00:53;;;;;;;9.23;6.28;;;15.80;91.30;;;;;;2082066;28;20060;-92
2021/08/31 03:02:58;;;;;;;10.30;6.63;;;15.70;91.20;;;;;;2091949;28;20032;-92
2021/08/31 03:03:59;;;;;;;9.13;6.03;;;15.70;91.20;;;;;;2090949;28;20029;-93
2021/08/31 03:05:00;;;;;;;9.93;5.78;;;15.70;91.20;;;;;;2090894;28;20455;-93
2021/08/31 03:06:00;;;;;;;8.25;5.53;;;15.70;91.30;;;;;;2089830;28;20036;-93
2021/08/31 03:07:03;;;;;;;8.55;5.57;;;15.70;91.30;;;;;;2081620;28;20088;-92
2021/08/31 03:08:03;;;;;;;8.55;5.95;;;15.70;91.30;;;;;;2086931;28;20041;-93
2021/08/31 03:09:04;;;;;;;8.50;5.82;;;15.70;91.30;;;;;;2092169;28;20414;-92
2021/08/31 03:10:05;;;;;;;10.13;6.32;;;15.70;91.30;;;;;;2074515;28;20038;-93
2021/08/31 03:11:06;;;;;;;8.98;6.22;;;15.70;91.30;;;;;;2073006;28;20129;-92
2021/08/31 03:12:08;;;;;;;8.40;5.90;;;15.70;91.30;;;;;;2081591;28;20025;-92
2021/08/31 03:13:08;;;;;;;9.45;6.13;;;15.70;91.30;;;;;;2098760;28;20045;-92
2021/08/31 03:14:10;;;;;;;9.60;5.88;;;15.70;91.30;;;;;;2082104;28;20025;-92
2021/08/31 03:15:11;;;;;;;11.95;6.32;;;15.70;91.30;;;;;;2082190;28;20036;-92
2021/08/31 03:16:12;;;;;;;8.55;5.75;;;15.70;91.30;;;;;;2088873;28;20506;-92
2021/08/31 03:17:13;;;;;;;8.00;5.60;;;15.70;91.30;;;;;;2092705;28;20021;-92
2021/08/31 03:18:14;;;;;;;8.60;5.70;;;15.70;91.30;;;;;;2090335;28;20079;-92
2021/08/31 03:19:23;;;;;;;8.68;5.43;;;15.70;91.30;;;;;;2089796;28;20036;-92
2021/08/31 03:20:23;;;;;;;9.05;5.97;;;15.70;91.60;;;;;;2092686;28;20123;-93
2021/08/31 03:21:24;;;;;;;11.43;6.40;;;15.70;91.30;;;;;;2090672;28;20017;-92
2021/08/31 03:22:25;;;;;;;9.23;6.07;;;15.70;91.30;;;;;;2082361;28;20562;-93
2021/08/31 03:23:26;;;;;;;9.35;6.00;;;15.70;91.30;;;;;;2085698;28;20021;-93
2021/08/31 03:24:27;;;;;;;8.65;5.88;;;15.70;91.30;;;;;;2090926;28;20558;-93
2021/08/31 03:25:28;;;;;;;9.88;6.05;;;15.70;91.30;;;;;;2094185;28;20020;-92
2021/08/31 03:26:28;;;;;;;9.13;6.13;;;15.70;91.30;;;;;;2089925;28;20028;-92
2021/08/31 03:27:29;;;;;;;9.30;5.65;;;15.70;91.40;;;;;;2082009;28;20052;-95
2021/08/31 03:28:30;;;;;;;8.57;5.72;;;15.70;91.30;;;;;;2090568;28;20041;-92
2021/08/31 03:29:31;;;;;;;9.55;5.95;;;15.70;91.40;;;;;;2090463;28;20101;-93
2021/08/31 03:30:32;;;;;;;9.15;5.68;;;15.70;91.30;;;;;;2090144;28;20025;-92
2021/08/31 03:31:33;;;;;;;7.85;5.43;;;15.70;91.40;;;;;;2081922;28;20025;-93
2021/08/31 03:32:33;;;;;;;10.15;6.40;;;15.70;91.30;;;;;;2086142;28;20034;-93
2021/08/31 03:33:34;;;;;;;9.60;6.63;;;15.70;91.30;;;;;;2087364;28;20037;-92
2021/08/31 03:34:35;;;;;;;7.88;6.05;;;15.70;91.30;;;;;;2086052;28;20041;-92
2021/08/31 03:35:35;;;;;;;9.65;6.43;;;15.70;91.30;;;;;;2074173;28;20053;-93
2021/08/31 03:36:36;;;;;;;10.45;6.80;;;15.70;91.30;;;;;;2080356;28;20426;-92
2021/08/31 03:37:37;;;;;;;9.13;6.28;;;15.70;91.30;;;;;;2070544;28;20034;-94
2021/08/31 03:38:37;;;;;;;9.15;6.25;;;15.70;91.30;;;;;;2070729;28;20033;-95
2021/08/31 03:39:38;;;;;;;10.05;6.35;;;15.70;91.30;;;;;;2082084;28;20160;-93
2021/08/31 03:40:39;;;;;;;9.43;6.10;;;15.70;91.30;;;;;;2079052;28;20075;-92
2021/08/31 03:41:39;;;;;;;9.25;6.25;;;15.70;91.30;;;;;;2082185;28;20041;-92
2021/08/31 03:42:40;;;;;;;11.32;6.55;;;15.70;91.30;;;;;;2085014;28;20021;-92
2021/08/31 03:43:41;;;;;;;10.10;6.00;;;15.70;91.30;;;;;;2086313;28;20036;-92
2021/08/31 03:44:41;;;;;;;8.10;5.60;;;15.70;91.30;;;;;;2082070;28;20091;-93
2021/08/31 03:45:42;;;;;;;8.07;4.97;;;15.70;91.30;;;;;;2082524;28;20270;-92
2021/08/31 03:46:43;;;;;;;8.75;5.65;;;15.70;91.40;;;;;;2086939;28;20021;-93
2021/08/31 03:47:44;;;;;;;8.60;5.63;;;15.70;91.30;;;;;;2092159;28;20132;-93
2021/08/31 03:48:45;;;;;;;8.13;5.65;;;15.70;91.30;;;;;;2084800;28;20037;-93
2021/08/31 03:49:47;;;;;;;9.60;5.82;;;15.70;91.30;;;;;;2092448;28;20116;-92
2021/08/31 03:50:47;;;;;;;12.57;7.25;;;15.70;91.30;;;;;;2084132;28;20034;-93
2021/08/31 03:51:48;;;;;;;10.93;6.68;;;15.70;91.30;;;;;;2093118;28;20068;-93
2021/08/31 03:52:50;;;;;;;11.38;6.53;;;15.70;91.30;;;;;;2080219;28;20418;-93
2021/08/31 03:53:51;;;;;;;11.00;6.75;;;15.70;91.30;;;;;;2081741;28;20028;-93
2021/08/31 03:54:51;;;;;;;10.80;6.18;;;15.70;91.30;;;;;;2074327;28;20507;-94
2021/08/31 03:55:52;;;;;;;11.20;7.00;;;15.70;91.30;;;;;;2080806;28;20068;-93
2021/08/31 03:56:53;;;;;;;10.02;6.75;;;15.70;91.30;;;;;;2089031;28;20518;-93
2021/08/31 03:57:53;;;;;;;9.80;6.35;;;15.70;91.30;;;;;;2082553;28;20045;-93
2021/08/31 03:58:54;;;;;;;9.23;5.95;;;15.70;91.30;;;;;;2083679;28;20064;-94
2021/08/31 03:59:55;;;;;;;9.45;6.47;;;15.70;91.40;;;;;;2083856;28;20034;-92
2021/08/31 04:00:56;;;;;;;10.55;6.18;;;15.70;91.40;;;;;;2098593;28;20605;-93
2021/08/31 04:01:57;;;;;;;9.82;6.13;;;15.70;91.40;;;;;;2098468;28;20107;-93
2021/08/31 04:02:58;;;;;;;9.02;5.72;;;15.70;91.40;;;;;;2082227;28;20038;-93
2021/08/31 04:03:58;;;;;;;9.40;5.43;;;15.70;91.40;;;;;;2088632;28;20048;-92
2021/08/31 04:04:59;;;;;;;9.07;5.47;;;15.80;91.40;;;;;;2089361;28;20041;-93
2021/08/31 04:06:00;;;;;;;9.38;5.53;;;15.70;91.30;;;;;;2090558;28;20036;-92
2021/08/31 04:07:00;;;;;;;8.40;5.28;;;15.80;91.40;;;;;;2088533;28;20119;-93
2021/08/31 04:08:01;;;;;;;8.82;4.80;;;15.80;91.40;;;;;;2073495;28;20485;-94
2021/08/31 04:09:02;;;;;;;9.35;5.47;;;15.80;91.30;;;;;;2073606;28;20112;-93
2021/08/31 04:10:03;;;;;;;9.07;4.90;;;15.80;91.30;;;;;;2082023;28;20487;-92
2021/08/31 04:11:04;;;;;;;9.85;5.63;;;15.90;91.30;;;;;;2081888;28;20036;-93
2021/08/31 04:12:05;;;;;;;9.52;5.57;;;15.90;91.30;;;;;;2065906;28;20507;-93
2021/08/31 04:13:07;;;;;;;12.27;6.57;;;15.90;91.30;;;;;;2081311;28;20045;-93
2021/08/31 04:14:08;;;;;;;9.10;5.20;;;15.90;91.30;;;;;;2081753;28;20091;-92
2021/08/31 04:15:09;;;;;;;8.82;5.55;;;15.90;91.30;;;;;;2082137;28;20021;-93
2021/08/31 04:16:10;;;;;;;10.07;5.80;;;15.90;91.30;;;;;;2082661;28;20503;-93
2021/08/31 04:17:10;;;;;;;9.40;5.53;;;15.90;91.30;;;;;;2081954;28;20060;-93
2021/08/31 04:18:11;;;;;;;8.93;5.40;;;15.90;91.30;;;;;;2082077;28;20057;-93
2021/08/31 04:19:12;;;;;;;8.68;5.18;;;16.00;91.30;;;;;;2079403;28;20079;-94
2021/08/31 04:20:13;;;;;;;7.85;4.72;;;15.90;91.30;;;;;;2073613;28;20044;-92
2021/08/31 04:21:14;;;;;;;7.95;4.45;;;16.00;91.30;;;;;;2089248;28;20040;-92
2021/08/31 04:22:15;;;;;;;10.63;5.05;;;16.00;91.30;;;;;;2098126;28;20079;-93
2021/08/31 04:23:16;;;;;;;7.95;4.68;;;16.00;91.30;;;;;;2089509;28;20029;-93
2021/08/31 04:24:17;;;;;;;9.10;5.07;;;16.00;91.30;;;;;;2074719;28;20072;-93
2021/08/31 04:25:18;;;;;;;8.70;4.88;;;16.00;91.30;;;;;;2065676;28;20026;-93
2021/08/31 04:26:18;;;;;;;7.85;4.60;;;16.00;91.20;;;;;;2081846;28;20030;-93
2021/08/31 04:27:19;;;;;;;8.57;4.78;;;16.00;91.20;;;;;;2081279;28;20026;-93
2021/08/31 04:28:20;;;;;;;6.90;4.43;;;16.00;91.20;;;;;;2089677;28;20029;-92
2021/08/31 04:29:20;;;;;;;9.27;4.97;;;16.00;91.20;;;;;;2081673;28;20156;-94
2021/08/31 04:30:21;;;;;;;8.60;4.72;;;16.00;91.30;;;;;;2081878;28;20102;-93
2021/08/31 04:31:23;;;;;;;7.90;4.35;;;16.00;91.30;;;;;;2076757;28;20391;-92
2021/08/31 04:32:23;;;;;;;8.32;4.40;;;16.10;91.30;;;;;;2081699;28;20033;-93
2021/08/31 04:33:24;;;;;;;9.88;5.07;;;16.00;91.20;;;;;;2081642;28;20033;-92
2021/08/31 04:34:25;;;;;;;7.65;4.10;;;16.10;91.30;;;;;;2088897;28;20502;-94
2021/08/31 04:35:25;;;;;;;10.93;4.18;;;16.00;91.20;;;;;;2077481;28;20423;-93
2021/08/31 04:36:26;;;;;;;7.65;4.65;;;16.00;91.20;;;;;;2075024;28;20495;-93
2021/08/31 04:37:26;;;;;;;7.30;4.03;;;16.00;91.20;;;;;;2081217;28;20461;-92
2021/08/31 04:38:27;;;;;;;6.63;4.10;;;16.00;91.20;;;;;;2073458;28;20801;-92
2021/08/31 04:39:28;;;;;;;8.98;4.10;;;16.00;91.20;;;;;;2081302;28;20059;-94
2021/08/31 04:40:29;;;;;;;7.65;4.60;;;16.10;91.20;;;;;;2089406;28;20546;-92
2021/08/31 04:41:29;;;;;;;7.20;4.00;;;16.10;91.20;;;;;;2097531;28;20024;-93
2021/08/31 04:42:30;;;;;;;7.32;4.03;;;16.10;91.20;;;;;;2082256;28;20503;-92
2021/08/31 04:43:31;;;;;;;7.85;4.07;;;16.10;91.20;;;;;;2084346;28;20029;-93
2021/08/31 04:44:34;;;;;;;12.77;5.53;;;16.10;91.20;;;;;;2089101;28;20558;-94
2021/08/31 04:45:36;;;;;;;8.93;4.80;;;16.10;91.20;;;;;;2080712;28;20049;-92
2021/08/31 04:46:36;;;;;;;8.02;5.00;;;16.10;91.20;;;;;;2090600;28;20483;-93
2021/08/31 04:47:37;;;;;;;8.18;4.68;;;16.10;91.20;;;;;;2081663;28;20515;-94
2021/08/31 04:48:39;;;;;;;8.25;4.20;;;16.10;91.20;;;;;;2072594;28;20026;-94
2021/08/31 04:49:40;;;;;;;8.70;4.20;;;16.10;91.20;;;;;;2082042;28;20061;-93
2021/08/31 04:50:41;;;;;;;8.80;4.47;;;16.10;91.10;;;;;;2090150;28;20028;-93
2021/08/31 04:51:41;;;;;;;7.97;4.10;;;16.10;91.10;;;;;;2073670;28;20041;-93
2021/08/31 04:52:42;;;;;;;7.35;4.35;;;16.10;91.10;;;;;;2081394;28;20025;-93
2021/08/31 04:53:43;;;;;;;8.13;4.30;;;16.10;91.10;;;;;;2089056;28;20021;-93
2021/08/31 04:54:44;;;;;;;6.72;3.83;;;16.10;91.10;;;;;;2090043;28;20037;-94
2021/08/31 04:55:44;;;;;;;6.00;3.50;;;16.10;91.10;;;;;;2081608;28;20128;-92
2021/08/31 04:56:45;;;;;;;7.68;3.78;;;16.10;91.10;;;;;;2079881;28;20030;-92
2021/08/31 04:57:46;;;;;;;6.07;3.83;;;16.10;91.10;;;;;;2079279;28;20040;-95
2021/08/31 04:58:46;;;;;;;6.57;3.65;;;16.10;91.00;;;;;;2090622;28;20076;-94
2021/08/31 04:59:47;;;;;;;7.72;3.70;;;16.20;91.10;;;;;;2080361;28;20079;-95
2021/08/31 05:00:48;;;;;;;7.05;3.50;;;16.20;91.10;;;;;;2080810;28;20388;-93
2021/08/31 05:01:48;;;;;;;6.38;3.50;;;16.10;91.00;;;;;;2081438;28;20095;-93
2021/08/31 05:02:50;;;;;;;8.45;3.75;;;16.10;91.00;;;;;;2075417;28;20026;-94
2021/08/31 05:03:51;;;;;;;6.55;3.47;;;16.10;91.00;;;;;;2081468;28;20030;-93
2021/08/31 05:04:52;;;;;;;6.50;3.47;;;16.10;91.00;;;;;;2071228;28;20018;-94
2021/08/31 05:05:52;;;;;;;9.98;3.78;;;16.10;91.00;;;;;;2074634;28;20038;-92
2021/08/31 05:06:53;;;;;;;7.40;3.92;;;16.20;91.00;;;;;;2065810;28;20042;-92
2021/08/31 05:07:54;;;;;;;6.22;3.63;;;16.10;91.00;;;;;;2086513;28;20057;-91
2021/08/31 05:08:54;;;;;;;6.40;3.47;;;16.10;90.90;;;;;;2090202;28;20029;-92
2021/08/31 05:09:55;;;;;;;5.80;3.60;;;16.10;90.90;;;;;;2074888;28;20080;-90
2021/08/31 05:10:56;;;;;;;7.10;3.80;;;16.20;91.00;;;;;;2075586;28;20037;-91
2021/08/31 05:11:56;;;;;;;6.57;3.65;;;16.10;90.90;;;;;;2082611;28;20088;-90
2021/08/31 05:12:57;;;;;;;8.20;3.80;;;16.20;90.90;;;;;;2082801;28;20034;-91
2021/08/31 05:13:58;;;;;;;7.65;3.53;;;16.10;90.90;;;;;;2065066;28;20121;-92
2021/08/31 05:14:58;;;;;;;7.07;3.88;;;16.10;90.90;;;;;;2067759;28;20046;-91
2021/08/31 05:15:59;;;;;;;7.15;3.70;;;16.10;90.90;;;;;;2077823;28;20025;-94
2021/08/31 05:16:59;;;;;;;6.65;4.03;;;16.10;90.90;;;;;;2081759;28;20113;-92
2021/08/31 05:18:00;;;;;;;7.57;3.75;;;16.20;90.90;;;;;;2080684;28;20184;-91
2021/08/31 05:19:02;;;;;;;10.02;4.00;;;16.10;90.90;;;;;;2081487;28;20554;-92